Share

Yap, FM

Guam International (PGUM) Elev 269 ft | 13.48 °N, 144.80 °E | Change Station

Current weather conditions updated 46 minutes ago

Partly Cloudy
Partly Cloudy
82 °F
Feels Like 89 °F
N
8
Wind Variable Wind from East
Sunrise 6:34 AM
Sunset 6:57 PM
Moon Waning Gibbous

Tomorrow is forecast to be Cooler than today. Morning thunderstorms.

Pressure 29.91 in
Visibility 10.0 miles
Clouds Few 1800 ft
Heat Index 89 °F
Dew Point 76 °F
Humidity 82%
Rainfall 0.15 in
Snow Depth Not available.
UV 0 out of 16
Pollen Not available.
Air Quality Not available.
Flu Activity
METAR PGUM 211254Z 10007KT 10SM FEW018 28/24 A2994 RMK AO2 SLP129 T02780244

More Conditions Fewer Conditions

Pressure 29.91 in
Visibility 10.0 miles
Clouds Few 1800 ft
Heat Index 89 °F
Dew Point 76 °F
Humidity 82%
Rainfall 0.15 in
Snow Depth Not available.
UV 0 out of 16
Pollen Not available.
Air Quality Not available.
Flu Activity
METAR PGUM 211254Z 10007KT 10SM FEW018 28/24 A2994 RMK AO2 SLP129 T02780244

More Conditions Fewer Conditions

10-Day Weather Forecast

Almanac

Astronomy

Apr. 21, 2014 Rise Set
Actual Time 6:34 AM CHUT 6:57 PM CHUT
Civil Twilight 6:13 AM CHUT 7:19 PM CHUT
Nautical Twilight 5:48 AM CHUT 7:44 PM CHUT
Astronomical Twilight 5:23 AM CHUT 8:09 PM CHUT
Moon No Moon Rise 11:38 AM CHUT
Length of Visible Light 13h 05m
Length of Day
12h 22m
Tomorrow will be 0m 28s longer.
Waning Gibbous, 59% of the Moon is Illuminated
Today
Waning Gibbous
Apr 22
Last Quarter
Apr 29
New
May 6
First Quarter
May 14
Full

Community

  • Snowy Robin
    Snowy Robin
  • Sun Pillar and Geese
    Sun Pillar and Geese
  • Showers on the Way
    Showers on the Way
  • Easter Morning Fog
    Easter Morning Fog
  • Easter Dance
    Easter Dance

WunderPhotos

Upload Photos

1,703,621 photos uploaded!

Nearby

Snow Depth

Station Depth Elevation
No new snow has been reported.

Coastal Water Temperatures

Place Temperature
No Stations Reporting

Earthquake Activity

City Distance Mag. Time & Date
No recent earthquake activity has been reported nearby.
Minimum magnitude displayed is 2.5.

Nearby Weather Stations

There are no personal weather stations in this area.

What do you think?

We're not finished. Please let us know what you like, what you don't like, and what you are still missing.